<?xml version="1.0" encoding="UTF-8" standalone="no" ?>
<gpx xmlns="http://www.topografix.com/GPX/1/1" xmlns:xsi="http://www.w3.org/2001/XMLSchema-instance" xsi:schemaLocation="http://www.topografix.com/GPX/1/1 http://www.topografix.com/GPX/1/1/gpx.xsd" version="1.1" creator="VisuGPX - https://www.visugpx.com">
  <metadata>
    <name>boucles beaumont</name>
    <desc><![CDATA[boucles beaumont du périgord]]></desc>
  </metadata>
  <trk>
    <name><![CDATA[BBmt68]]></name>
    <trkseg>
      <trkpt lat="44.81048" lon="0.82497">
        <ele>151</ele>
        <time>2009-01-26T10:22:52Z</time>
      </trkpt>
      <trkpt lat="44.8108" lon="0.82516">
        <ele>152</ele>
        <time>2009-01-26T10:23:03Z</time>
      </trkpt>
      <trkpt lat="44.81092" lon="0.82524">
        <ele>152</ele>
        <time>2009-01-26T10:23:23Z</time>
      </trkpt>
      <trkpt lat="44.81104" lon="0.82535">
        <ele>152</ele>
        <time>2009-01-26T10:25:32Z</time>
      </trkpt>
      <trkpt lat="44.81115" lon="0.82553">
        <ele>154</ele>
        <time>2009-01-26T10:26:01Z</time>
      </trkpt>
      <trkpt lat="44.81133" lon="0.82568">
        <ele>151</ele>
        <time>2009-01-26T10:26:18Z</time>
      </trkpt>
      <trkpt lat="44.8115" lon="0.82575">
        <ele>145</ele>
        <time>2009-01-26T10:26:35Z</time>
      </trkpt>
      <trkpt lat="44.81168" lon="0.82568">
        <ele>147</ele>
        <time>2009-01-26T10:26:50Z</time>
      </trkpt>
      <trkpt lat="44.81185" lon="0.8256">
        <ele>150</ele>
        <time>2009-01-26T10:27:16Z</time>
      </trkpt>
      <trkpt lat="44.81205" lon="0.82565">
        <ele>148</ele>
        <time>2009-01-26T10:27:32Z</time>
      </trkpt>
      <trkpt lat="44.81225" lon="0.8257">
        <ele>146</ele>
        <time>2009-01-26T10:27:48Z</time>
      </trkpt>
      <trkpt lat="44.81245" lon="0.82573">
        <ele>143</ele>
        <time>2009-01-26T10:28:03Z</time>
      </trkpt>
      <trkpt lat="44.81265" lon="0.82578">
        <ele>140</ele>
        <time>2009-01-26T10:28:18Z</time>
      </trkpt>
      <trkpt lat="44.81285" lon="0.8258">
        <ele>137</ele>
        <time>2009-01-26T10:28:33Z</time>
      </trkpt>
      <trkpt lat="44.81278" lon="0.82605">
        <ele>131</ele>
        <time>2009-01-26T10:28:53Z</time>
      </trkpt>
      <trkpt lat="44.81263" lon="0.82623">
        <ele>120</ele>
        <time>2009-01-26T10:29:10Z</time>
      </trkpt>
      <trkpt lat="44.81248" lon="0.82638">
        <ele>110</ele>
        <time>2009-01-26T10:29:27Z</time>
      </trkpt>
      <trkpt lat="44.81233" lon="0.82653">
        <ele>112</ele>
        <time>2009-01-26T10:29:39Z</time>
      </trkpt>
      <trkpt lat="44.81215" lon="0.8266">
        <ele>128</ele>
        <time>2009-01-26T10:30:26Z</time>
      </trkpt>
      <trkpt lat="44.81195" lon="0.82658">
        <ele>122</ele>
        <time>2009-01-26T10:30:41Z</time>
      </trkpt>
      <trkpt lat="44.81175" lon="0.82655">
        <ele>114</ele>
        <time>2009-01-26T10:30:58Z</time>
      </trkpt>
      <trkpt lat="44.81173" lon="0.82683">
        <ele>107</ele>
        <time>2009-01-26T10:31:20Z</time>
      </trkpt>
      <trkpt lat="44.81173" lon="0.8271">
        <ele>126</ele>
        <time>2009-01-26T10:31:31Z</time>
      </trkpt>
      <trkpt lat="44.81173" lon="0.82738">
        <ele>130</ele>
        <time>2009-01-26T10:31:53Z</time>
      </trkpt>
      <trkpt lat="44.81168" lon="0.82763">
        <ele>130</ele>
        <time>2009-01-26T10:32:11Z</time>
      </trkpt>
      <trkpt lat="44.81165" lon="0.8279">
        <ele>115</ele>
        <time>2009-01-26T10:32:36Z</time>
      </trkpt>
      <trkpt lat="44.81165" lon="0.82818">
        <ele>115</ele>
        <time>2009-01-26T10:33:02Z</time>
      </trkpt>
      <trkpt lat="44.81163" lon="0.82845">
        <ele>117</ele>
        <time>2009-01-26T10:33:31Z</time>
      </trkpt>
      <trkpt lat="44.81165" lon="0.82873">
        <ele>129</ele>
        <time>2009-01-26T10:33:53Z</time>
      </trkpt>
      <trkpt lat="44.81168" lon="0.829">
        <ele>126</ele>
        <time>2009-01-26T10:34:18Z</time>
      </trkpt>
      <trkpt lat="44.8117" lon="0.82928">
        <ele>132</ele>
        <time>2009-01-26T10:34:33Z</time>
      </trkpt>
      <trkpt lat="44.8117" lon="0.82955">
        <ele>128</ele>
        <time>2009-01-26T10:34:58Z</time>
      </trkpt>
      <trkpt lat="44.8117" lon="0.82983">
        <ele>119</ele>
        <time>2009-01-26T10:35:22Z</time>
      </trkpt>
      <trkpt lat="44.8117" lon="0.8301">
        <ele>145</ele>
        <time>2009-01-26T10:35:47Z</time>
      </trkpt>
      <trkpt lat="44.8117" lon="0.83038">
        <ele>169</ele>
        <time>2009-01-26T10:37:30Z</time>
      </trkpt>
      <trkpt lat="44.8117" lon="0.83065">
        <ele>165</ele>
        <time>2009-01-26T10:37:50Z</time>
      </trkpt>
      <trkpt lat="44.81168" lon="0.83093">
        <ele>160</ele>
        <time>2009-01-26T10:38:12Z</time>
      </trkpt>
      <trkpt lat="44.81168" lon="0.8312">
        <ele>167</ele>
        <time>2009-01-26T10:38:37Z</time>
      </trkpt>
      <trkpt lat="44.81155" lon="0.8314">
        <ele>169</ele>
        <time>2009-01-26T10:38:54Z</time>
      </trkpt>
      <trkpt lat="44.81138" lon="0.83148">
        <ele>177</ele>
        <time>2009-01-26T10:39:12Z</time>
      </trkpt>
      <trkpt lat="44.81118" lon="0.8315">
        <ele>174</ele>
        <time>2009-01-26T10:39:28Z</time>
      </trkpt>
      <trkpt lat="44.811" lon="0.8316">
        <ele>171</ele>
        <time>2009-01-26T10:39:43Z</time>
      </trkpt>
      <trkpt lat="44.8108" lon="0.83163">
        <ele>158</ele>
        <time>2009-01-26T10:40:01Z</time>
      </trkpt>
      <trkpt lat="44.81063" lon="0.8317">
        <ele>145</ele>
        <time>2009-01-26T10:40:18Z</time>
      </trkpt>
      <trkpt lat="44.81045" lon="0.83183">
        <ele>138</ele>
        <time>2009-01-26T10:40:35Z</time>
      </trkpt>
      <trkpt lat="44.8103" lon="0.832">
        <ele>134</ele>
        <time>2009-01-26T10:40:50Z</time>
      </trkpt>
      <trkpt lat="44.81023" lon="0.83225">
        <ele>141</ele>
        <time>2009-01-26T10:41:10Z</time>
      </trkpt>
    </trkseg>
  </trk>
</gpx>